Time;durP1;ratioP1;P1;durP2;ratioP2;P2;SDS_P1;SDS_P2;PMS_P1;PMS_P2;Temp;Humidity;BMP_temperature;BMP_pressure;BME280_temperature;BME280_humidity;BME280_pressure;Samples;Min_cycle;Max_cycle;Signal;HPM_P1;HPM_P2
2022/09/06 00:00:15;;;;;;;32.10;14.13;;;16.60;99.90;;;;;;5017401;28;20069;-74
2022/09/06 00:02:43;;;;;;;41.88;16.25;;;16.50;99.90;;;;;;5018437;28;20057;-74
2022/09/06 00:05:12;;;;;;;44.10;17.65;;;16.40;99.90;;;;;;5018099;28;20116;-73
2022/09/06 00:07:40;;;;;;;49.88;20.10;;;16.30;99.90;;;;;;5017141;28;20445;-73
2022/09/06 00:10:08;;;;;;;;;;;16.30;99.90;;;;;;5018379;28;20041;-73
2022/09/06 00:12:36;;;;;;;53.65;20.08;;;16.20;99.90;;;;;;5001193;28;19925;-73
2022/09/06 00:15:05;;;;;;;35.55;17.30;;;16.10;99.90;;;;;;5017458;28;20334;-73
2022/09/06 00:17:33;;;;;;;63.70;23.58;;;16.10;99.90;;;;;;5017160;28;20057;-74
2022/09/06 00:20:01;;;;;;;46.58;22.13;;;16.00;99.90;;;;;;5017326;28;20042;-73
2022/09/06 00:22:29;;;;;;;50.65;21.73;;;15.90;99.90;;;;;;5018264;28;20050;-73
2022/09/06 00:24:57;;;;;;;58.38;20.75;;;15.90;99.90;;;;;;5018234;28;20057;-74
2022/09/06 00:27:24;;;;;;;47.20;20.60;;;15.80;99.90;;;;;;5017064;28;20050;-73
2022/09/06 00:29:52;;;;;;;58.28;23.17;;;15.80;99.90;;;;;;5000554;28;20049;-73
2022/09/06 00:32:19;;;;;;;69.72;24.48;;;15.70;99.90;;;;;;5017550;28;20326;-73
2022/09/06 00:34:47;;;;;;;44.25;19.75;;;15.70;99.90;;;;;;5016864;28;20042;-73
2022/09/06 00:37:15;;;;;;;56.25;21.02;;;15.70;99.90;;;;;;5017708;28;20049;-74
2022/09/06 00:39:43;;;;;;;43.80;20.50;;;15.70;99.90;;;;;;5007830;28;20049;-72
2022/09/06 00:42:12;;;;;;;49.40;22.98;;;15.60;99.90;;;;;;5035563;28;20064;-72
2022/09/06 00:44:40;;;;;;;52.60;22.73;;;15.60;99.90;;;;;;5037695;28;20053;-73
2022/09/06 00:47:08;;;;;;;43.78;21.60;;;15.50;99.90;;;;;;5036267;28;20056;-74
2022/09/06 00:49:46;;;;;;;49.53;24.52;;;15.90;99.90;;;;;;5037750;28;20057;-73
2022/09/06 00:52:15;;;;;;;55.22;26.08;;;15.50;99.90;;;;;;5036417;28;20060;-73
2022/09/06 00:54:43;;;;;;;55.00;25.25;;;15.60;99.90;;;;;;5035114;28;20041;-73
2022/09/06 00:57:13;;;;;;;61.63;26.05;;;15.50;99.90;;;;;;5036619;28;20052;-73
2022/09/06 00:59:42;;;;;;;65.72;23.75;;;15.50;99.90;;;;;;5036725;28;20065;-73
2022/09/06 01:02:10;;;;;;;46.92;20.55;;;15.60;99.90;;;;;;5036110;28;20049;-73
2022/09/06 01:04:42;;;;;;;56.88;22.80;;;15.50;99.90;;;;;;5036355;28;20325;-73
2022/09/06 01:07:31;;;;;;;58.47;23.10;;;15.40;99.90;;;;;;5035777;28;20376;-73
2022/09/06 01:10:18;;;;;;;81.30;26.77;;;15.40;99.90;;;;;;5036594;28;20045;-73
2022/09/06 01:13:15;;;;;;;93.90;26.35;;;15.30;99.90;;;;;;5036212;28;20057;-73
2022/09/06 01:16:11;;;;;;;66.80;25.73;;;15.30;99.90;;;;;;5037099;28;20052;-73
2022/09/06 01:18:51;;;;;;;60.25;25.60;;;15.30;99.90;;;;;;5036497;28;20045;-73
2022/09/06 01:21:33;;;;;;;69.05;26.45;;;15.20;99.90;;;;;;5035804;28;20048;-73
2022/09/06 01:24:27;;;;;;;141.25;34.33;;;15.20;99.90;;;;;;5036134;28;20053;-73
2022/09/06 01:26:55;;;;;;;48.45;24.02;;;15.20;99.90;;;;;;5035067;28;20061;-73
2022/09/06 01:30:00;;;;;;;58.83;25.48;;;15.10;99.90;;;;;;5036961;28;20038;-73
2022/09/06 01:32:54;;;;;;;65.20;23.67;;;15.10;99.90;;;;;;5015515;28;20064;-73
2022/09/06 01:35:30;;;;;;;42.95;21.42;;;15.10;99.90;;;;;;5035479;28;20445;-73
2022/09/06 01:37:59;;;;;;;54.15;25.05;;;15.10;99.90;;;;;;5036780;28;20056;-73
2022/09/06 01:40:27;;;;;;;53.00;24.48;;;15.00;99.90;;;;;;5023114;28;20042;-74
2022/09/06 01:42:55;;;;;;;;;;;15.00;99.90;;;;;;5017191;28;20057;-73
2022/09/06 01:45:40;;;;;;;59.65;24.30;;;14.90;99.90;;;;;;5016507;28;20367;-73
2022/09/06 01:48:34;;;;;;;53.65;24.88;;;15.00;99.90;;;;;;4998690;28;20483;-73
2022/09/06 01:51:20;;;;;;;56.67;25.42;;;14.90;99.90;;;;;;5016618;28;20057;-73
2022/09/06 01:54:25;;;;;;;59.65;25.13;;;14.90;99.90;;;;;;5015335;28;20045;-73
2022/09/06 01:57:17;;;;;;;51.03;23.65;;;14.90;99.90;;;;;;5016189;28;20046;-73
2022/09/06 02:00:10;;;;;;;71.53;27.05;;;14.90;99.90;;;;;;4999437;28;20046;-73
2022/09/06 02:02:49;;;;;;;60.67;26.45;;;14.90;99.90;;;;;;5016573;28;20045;-73
2022/09/06 02:05:23;;;;;;;59.42;29.50;;;14.80;99.90;;;;;;5015904;28;20050;-73
2022/09/06 02:07:56;;;;;;;68.22;28.92;;;14.80;99.90;;;;;;5015109;28;20045;-74
2022/09/06 02:10:35;;;;;;;73.43;30.92;;;14.80;99.90;;;;;;5015865;28;20057;-72
2022/09/06 02:13:06;;;;;;;70.28;28.98;;;14.80;99.90;;;;;;5015773;28;20049;-73
2022/09/06 02:15:38;;;;;;;49.78;27.52;;;14.80;99.90;;;;;;5014718;28;20381;-73
2022/09/06 02:18:13;;;;;;;61.17;29.52;;;14.80;99.90;;;;;;5015531;28;20050;-73
2022/09/06 02:20:46;;;;;;;64.53;30.52;;;14.80;99.90;;;;;;5015101;28;20052;-73
2022/09/06 02:23:16;;;;;;;71.07;33.35;;;14.80;99.90;;;;;;5015853;28;20046;-74
2022/09/06 02:25:53;;;;;;;71.50;32.15;;;14.90;99.90;;;;;;5016136;28;20045;-73
2022/09/06 02:28:21;;;;;;;64.32;30.77;;;14.90;99.90;;;;;;5015170;28;20057;-73
2022/09/06 02:30:57;;;;;;;71.25;31.65;;;14.90;99.90;;;;;;5015965;28;20065;-74
2022/09/06 02:33:29;;;;;;;71.90;31.52;;;14.90;99.90;;;;;;4997205;28;20053;-73
2022/09/06 02:36:05;;;;;;;63.10;30.00;;;14.90;99.90;;;;;;4998604;28;20052;-74
2022/09/06 02:38:36;;;;;;;73.43;30.27;;;14.90;99.90;;;;;;4997872;28;20057;-74
2022/09/06 02:41:05;;;;;;;62.60;27.80;;;14.90;99.90;;;;;;5016101;28;20073;-73
2022/09/06 02:43:33;;;;;;;62.15;27.80;;;14.90;99.90;;;;;;5015817;28;20057;-73
2022/09/06 02:46:01;;;;;;;76.63;28.52;;;14.90;99.90;;;;;;5015247;28;20053;-73
2022/09/06 02:48:28;;;;;;;;;;;14.80;99.90;;;;;;5014706;28;20469;-73
2022/09/06 02:50:56;;;;;;;67.57;26.75;;;14.80;99.90;;;;;;5015079;28;19925;-73
2022/09/06 02:53:24;;;;;;;85.78;30.65;;;14.80;99.90;;;;;;5014115;28;20044;-73
2022/09/06 02:55:51;;;;;;;70.80;28.65;;;14.70;99.90;;;;;;5014930;28;20046;-73
2022/09/06 02:58:18;;;;;;;75.30;29.20;;;14.70;99.90;;;;;;5015007;28;20452;-73
2022/09/06 03:00:46;;;;;;;70.50;27.48;;;14.70;99.90;;;;;;5014452;28;20046;-73
2022/09/06 03:03:14;;;;;;;64.70;28.95;;;14.60;99.90;;;;;;5015085;28;20045;-74
2022/09/06 03:05:49;;;;;;;74.97;30.27;;;14.60;99.90;;;;;;4997858;28;20057;-74
2022/09/06 03:08:19;;;;;;;92.75;31.38;;;14.60;99.90;;;;;;5014180;28;20054;-74
2022/09/06 03:10:48;;;;;;;60.22;27.98;;;14.60;99.90;;;;;;5015507;28;20050;-73
2022/09/06 03:13:16;;;;;;;64.07;28.27;;;14.50;99.90;;;;;;5014522;28;20460;-73
2022/09/06 03:15:44;;;;;;;58.20;28.58;;;14.50;99.90;;;;;;4997790;28;20050;-73
2022/09/06 03:18:11;;;;;;;76.57;31.35;;;14.50;99.90;;;;;;5014734;28;20050;-73
2022/09/06 03:20:39;;;;;;;63.63;29.38;;;14.50;99.90;;;;;;4996666;28;20046;-73
2022/09/06 03:23:08;;;;;;;77.32;29.52;;;14.50;99.90;;;;;;5014955;28;20050;-73
2022/09/06 03:25:35;;;;;;;70.95;28.38;;;14.50;99.90;;;;;;5014739;28;20057;-73
2022/09/06 03:28:03;;;;;;;65.60;26.98;;;14.50;99.90;;;;;;5013973;28;20065;-73
2022/09/06 03:30:31;;;;;;;55.30;25.60;;;14.40;99.90;;;;;;5014738;28;20050;-72
2022/09/06 03:32:59;;;;;;;51.83;26.88;;;14.40;99.90;;;;;;5014748;28;20046;-74
2022/09/06 03:35:29;;;;;;;61.85;27.23;;;14.30;99.90;;;;;;5014471;28;20056;-73
2022/09/06 03:37:56;;;;;;;71.22;29.77;;;14.30;99.90;;;;;;5014560;28;20134;-73
2022/09/06 03:40:24;;;;;;;64.53;27.40;;;14.30;99.90;;;;;;5013690;28;20046;-74
2022/09/06 03:42:51;;;;;;;68.82;29.80;;;14.30;99.90;;;;;;5014950;28;20053;-73
2022/09/06 03:45:19;;;;;;;69.78;29.38;;;14.20;99.90;;;;;;5014559;28;20041;-73
2022/09/06 03:47:47;;;;;;;83.20;29.52;;;14.20;99.90;;;;;;5014012;28;20047;-73
2022/09/06 03:50:14;;;;;;;74.05;30.98;;;14.20;99.90;;;;;;5014467;28;20046;-73
2022/09/06 03:52:42;;;;;;;66.95;29.45;;;14.20;99.90;;;;;;5014331;28;20051;-73
2022/09/06 03:55:10;;;;;;;90.80;34.05;;;14.20;99.90;;;;;;5032767;28;20064;-72
2022/09/06 03:57:38;;;;;;;;;;;14.20;99.90;;;;;;5034692;28;20460;-73
2022/09/06 04:00:06;;;;;;;78.07;30.08;;;14.20;99.90;;;;;;5033388;28;19928;-72
2022/09/06 04:02:38;;;;;;;85.32;33.55;;;14.20;99.90;;;;;;5034520;28;20341;-73
2022/09/06 04:05:06;;;;;;;71.50;33.42;;;14.20;99.90;;;;;;5034776;28;20395;-72
2022/09/06 04:07:33;;;;;;;73.38;33.78;;;14.20;99.90;;;;;;5033228;28;20045;-73
2022/09/06 04:10:01;;;;;;;86.45;36.42;;;14.20;99.90;;;;;;5034528;28;20045;-73
2022/09/06 04:12:28;;;;;;;74.53;34.00;;;14.20;99.90;;;;;;5034329;28;20054;-72
2022/09/06 04:14:56;;;;;;;83.57;32.65;;;14.20;99.90;;;;;;5033626;28;20064;-73
2022/09/06 04:17:24;;;;;;;60.15;29.33;;;14.20;99.90;;;;;;5038134;28;20076;-73
2022/09/06 04:19:51;;;;;;;75.00;32.60;;;14.20;99.90;;;;;;5037656;28;20048;-73
2022/09/06 04:22:19;;;;;;;76.10;33.75;;;14.20;99.90;;;;;;5019366;28;20456;-72
2022/09/06 04:24:47;;;;;;;86.03;36.17;;;14.20;99.90;;;;;;5037465;28;20061;-73
2022/09/06 04:27:14;;;;;;;88.05;39.00;;;14.20;99.90;;;;;;5035730;28;20499;-73
2022/09/06 04:29:42;;;;;;;90.60;39.47;;;14.20;99.90;;;;;;5037351;28;20061;-73
2022/09/06 04:32:10;;;;;;;94.43;42.28;;;14.30;99.90;;;;;;5037271;28;20057;-73
2022/09/06 04:34:37;;;;;;;100.97;44.75;;;14.30;99.90;;;;;;5036677;28;20064;-73
2022/09/06 04:37:05;;;;;;;120.40;47.55;;;14.40;99.90;;;;;;5037556;28;20352;-73
2022/09/06 04:39:32;;;;;;;121.10;49.45;;;14.50;99.90;;;;;;5037179;28;20042;-73
2022/09/06 04:42:00;;;;;;;115.95;49.50;;;14.50;99.90;;;;;;5036199;28;20052;-73
2022/09/06 04:44:27;;;;;;;128.95;52.28;;;14.60;99.90;;;;;;5037753;28;20049;-73
2022/09/06 04:47:21;;;;;;;125.50;53.35;;;14.70;99.90;;;;;;5036036;28;20056;-73
2022/09/06 04:49:49;;;;;;;114.68;49.35;;;14.80;99.90;;;;;;5033705;28;20053;-73
2022/09/06 04:52:17;;;;;;;125.00;52.00;;;14.90;99.90;;;;;;5037613;28;20053;-73
2022/09/06 04:54:44;;;;;;;115.10;51.42;;;15.00;99.90;;;;;;5035804;28;20045;-73
2022/09/06 04:57:12;;;;;;;121.45;50.15;;;15.00;99.90;;;;;;5036945;28;20041;-73
2022/09/06 04:59:42;;;;;;;135.10;49.90;;;15.00;99.90;;;;;;5036713;28;20049;-74
2022/09/06 05:02:10;;;;;;;101.93;43.53;;;15.00;99.90;;;;;;5018444;28;20049;-74
2022/09/06 05:04:37;;;;;;;124.07;46.05;;;15.00;99.90;;;;;;5037074;28;20475;-73
2022/09/06 05:07:07;;;;;;;107.28;45.67;;;14.90;99.90;;;;;;5035639;28;20045;-73
2022/09/06 05:09:35;;;;;;;114.13;43.97;;;14.90;99.90;;;;;;5003545;28;20057;-73
2022/09/06 05:12:03;;;;;;;;;;;14.90;99.90;;;;;;5037041;28;20368;-73
2022/09/06 05:14:31;;;;;;;112.78;43.55;;;15.70;99.90;;;;;;5019137;28;19928;-73
2022/09/06 05:16:58;;;;;;;117.93;47.85;;;14.90;99.90;;;;;;5036560;28;20050;-73
2022/09/06 05:19:26;;;;;;;113.60;46.72;;;14.90;99.90;;;;;;5037023;28;20068;-74
2022/09/06 05:21:54;;;;;;;112.50;46.70;;;14.90;99.90;;;;;;5035402;28;20041;-73
2022/09/06 05:24:21;;;;;;;115.25;46.28;;;14.90;99.90;;;;;;5036960;28;20049;-73
2022/09/06 05:26:49;;;;;;;108.03;44.20;;;14.90;99.90;;;;;;5017802;28;20046;-73
2022/09/06 05:29:16;;;;;;;123.65;47.25;;;14.90;99.90;;;;;;5036713;28;20049;-74
2022/09/06 05:31:44;;;;;;;128.40;46.10;;;14.90;99.90;;;;;;5036277;28;20046;-73
2022/09/06 05:34:13;;;;;;;123.30;46.92;;;14.90;99.90;;;;;;5034322;28;20121;-73
2022/09/06 05:36:41;;;;;;;113.65;47.20;;;14.90;99.90;;;;;;5036015;28;20041;-73
2022/09/06 05:39:08;;;;;;;124.90;46.15;;;14.90;99.90;;;;;;5036237;28;20049;-73
2022/09/06 05:41:36;;;;;;;117.88;45.05;;;14.90;99.90;;;;;;5052969;28;20076;-73
2022/09/06 05:44:04;;;;;;;126.28;48.20;;;14.90;99.90;;;;;;5056695;28;20052;-73
2022/09/06 05:46:31;;;;;;;111.03;45.92;;;14.80;99.90;;;;;;5055879;28;20064;-73
2022/09/06 05:49:06;;;;;;;111.65;47.40;;;14.90;99.90;;;;;;5055562;28;20052;-73
2022/09/06 05:51:34;;;;;;;116.72;47.17;;;14.90;99.90;;;;;;5055482;28;20052;-73
2022/09/06 05:54:02;;;;;;;129.70;47.88;;;14.90;99.90;;;;;;5054742;28;20041;-73
2022/09/06 05:56:29;;;;;;;115.95;46.78;;;14.90;99.90;;;;;;5055604;28;20041;-73
2022/09/06 05:58:57;;;;;;;135.93;50.67;;;14.90;99.90;;;;;;5056196;28;20052;-72
2022/09/06 06:01:26;;;;;;;164.40;53.10;;;15.00;99.90;;;;;;5054609;28;20060;-72
2022/09/06 06:03:56;;;;;;;154.73;53.05;;;15.00;99.90;;;;;;5056224;28;20056;-73
2022/09/06 06:06:25;;;;;;;142.88;52.47;;;15.10;99.90;;;;;;5055503;28;20041;-73
2022/09/06 06:08:53;;;;;;;130.35;52.10;;;15.20;99.90;;;;;;5054027;28;20134;-73
2022/09/06 06:11:21;;;;;;;122.25;50.20;;;15.40;99.90;;;;;;5055453;28;20048;-73
2022/09/06 06:13:49;;;;;;;115.60;48.55;;;15.50;99.90;;;;;;5054873;28;20060;-73
2022/09/06 06:16:21;;;;;;;128.35;53.17;;;15.60;99.90;;;;;;5055428;28;20056;-72
2022/09/06 06:18:49;;;;;;;114.70;49.65;;;15.70;99.90;;;;;;5054394;28;20059;-73
2022/09/06 06:21:27;;;;;;;118.60;48.55;;;15.90;99.90;;;;;;5054897;28;20052;-73
2022/09/06 06:23:59;;;;;;;115.13;46.78;;;16.00;99.90;;;;;;5043877;28;20132;-74
2022/09/06 06:26:31;;;;;;;114.05;49.05;;;16.20;99.90;;;;;;5035040;28;20042;-74
2022/09/06 06:29:00;;;;;;;118.18;45.60;;;16.30;99.90;;;;;;5033981;28;20372;-74
2022/09/06 06:31:29;;;;;;;86.88;38.85;;;16.50;99.90;;;;;;5035076;28;20400;-73
2022/09/06 06:33:58;;;;;;;98.82;39.13;;;16.60;99.90;;;;;;5033202;28;20045;-73
2022/09/06 06:36:29;;;;;;;92.30;38.78;;;16.60;99.90;;;;;;5035088;28;20053;-74
2022/09/06 06:38:57;;;;;;;85.07;35.22;;;16.70;99.90;;;;;;5034344;28;20452;-74
2022/09/06 06:41:27;;;;;;;95.32;35.08;;;16.80;99.90;;;;;;5015997;28;20334;-74
2022/09/06 06:43:59;;;;;;;88.95;33.33;;;16.90;99.90;;;;;;5015308;28;20480;-74
2022/09/06 06:46:30;;;;;;;78.07;30.00;;;16.90;99.90;;;;;;5015511;28;20046;-73
2022/09/06 06:48:58;;;;;;;81.53;30.38;;;17.00;99.90;;;;;;5014172;28;20045;-73
2022/09/06 06:51:28;;;;;;;82.93;33.25;;;17.00;99.90;;;;;;5015326;28;20042;-74
2022/09/06 06:53:56;;;;;;;126.32;45.50;;;17.00;99.90;;;;;;5014177;28;20042;-74
2022/09/06 06:56:25;;;;;;;99.47;35.33;;;17.10;99.90;;;;;;5015006;28;20373;-73
2022/09/06 06:58:56;;;;;;;77.93;32.00;;;17.10;99.90;;;;;;5014130;28;20058;-75
2022/09/06 07:01:29;;;;;;;71.00;27.80;;;17.20;99.90;;;;;;5013979;28;20365;-74
2022/09/06 07:03:57;;;;;;;73.72;25.70;;;17.30;99.90;;;;;;5014892;28;20064;-73
2022/09/06 07:06:28;;;;;;;68.55;26.60;;;17.40;99.90;;;;;;5015083;28;20046;-75
2022/09/06 07:09:18;;;;;;;63.88;23.98;;;17.40;99.90;;;;;;5014905;28;20350;-74
2022/09/06 07:11:47;;;;;;;58.13;20.25;;;17.50;99.90;;;;;;5014895;28;20050;-75
2022/09/06 07:14:16;;;;;;;53.28;20.73;;;17.60;99.90;;;;;;5013598;28;20061;-74
2022/09/06 07:16:44;;;;;;;52.15;21.30;;;17.60;99.90;;;;;;5014766;28;20117;-74
2022/09/06 07:19:12;;;;;;;47.65;19.40;;;17.60;99.90;;;;;;5015273;28;20469;-74
2022/09/06 07:21:59;;;;;;;54.65;16.05;;;17.60;99.90;;;;;;5013645;28;20400;-73
2022/09/06 07:24:32;;;;;;;51.58;17.52;;;17.50;99.90;;;;;;4997864;28;20050;-73
2022/09/06 07:26:59;;;;;;;54.33;18.17;;;17.40;99.90;;;;;;5013205;28;20065;-73
2022/09/06 07:29:47;;;;;;;54.42;16.88;;;17.30;99.90;;;;;;5013916;28;20057;-73
2022/09/06 07:32:14;;;;;;;58.30;19.73;;;17.20;99.90;;;;;;5014690;28;20380;-74
2022/09/06 07:34:42;;;;;;;46.90;15.73;;;17.30;99.90;;;;;;4996132;28;20041;-74
2022/09/06 07:37:09;;;;;;;48.50;14.68;;;17.40;99.90;;;;;;5014868;28;20412;-73
2022/09/06 07:39:37;;;;;;;46.92;12.80;;;17.50;99.90;;;;;;4998684;28;20042;-76
2022/09/06 07:42:05;;;;;;;48.20;11.52;;;17.60;99.90;;;;;;5014292;28;20041;-75
2022/09/06 07:44:33;;;;;;;52.72;14.80;;;17.60;99.90;;;;;;5027558;28;20050;-73
2022/09/06 07:47:05;;;;;;;51.70;11.07;;;17.60;99.90;;;;;;5032788;28;20457;-73
2022/09/06 07:49:53;;;;;;;35.67;9.93;;;17.50;99.90;;;;;;5021940;28;20041;-73
2022/09/06 07:52:40;;;;;;;47.55;9.73;;;17.50;99.90;;;;;;5037982;28;20465;-73
2022/09/06 07:55:27;;;;;;;35.53;8.90;;;17.50;99.90;;;;;;5037438;28;20418;-74
2022/09/06 07:57:55;;;;;;;41.60;8.52;;;17.50;99.90;;;;;;5021381;28;20452;-73
2022/09/06 08:00:23;;;;;;;38.92;9.02;;;17.50;99.90;;;;;;5037164;28;20057;-73
2022/09/06 08:02:50;;;;;;;43.83;8.70;;;17.70;99.90;;;;;;5038408;28;20348;-74
2022/09/06 08:05:20;;;;;;;32.03;7.13;;;17.80;99.90;;;;;;5038231;28;20060;-73
2022/09/06 08:08:07;;;;;;;38.13;6.70;;;17.90;99.90;;;;;;5022635;28;20045;-74
2022/09/06 08:10:55;;;;;;;38.10;7.65;;;17.90;99.90;;;;;;5038139;28;20045;-74
2022/09/06 08:13:23;;;;;;;36.35;7.13;;;17.90;99.90;;;;;;5037365;28;20049;-73
2022/09/06 08:16:00;;;;;;;34.25;6.50;;;18.00;99.90;;;;;;5020654;28;20045;-75
2022/09/06 08:18:28;;;;;;;28.05;6.03;;;18.10;99.90;;;;;;5037710;28;20048;-74
2022/09/06 08:21:03;;;;;;;37.08;6.20;;;18.10;99.90;;;;;;5019730;28;20495;-77
2022/09/06 08:23:38;;;;;;;38.08;5.97;;;18.10;99.90;;;;;;5037472;28;20042;-75
2022/09/06 08:26:05;;;;;;;26.63;4.45;;;18.10;99.90;;;;;;5037501;28;20058;-72
2022/09/06 08:28:33;;;;;;;32.03;4.85;;;18.20;99.90;;;;;;5036544;28;20060;-72
2022/09/06 08:31:12;;;;;;;38.08;5.72;;;18.30;99.90;;;;;;5037901;28;20052;-73
2022/09/06 08:33:41;;;;;;;30.10;5.22;;;18.40;99.90;;;;;;5036619;28;20058;-72
2022/09/06 08:36:10;;;;;;;30.80;4.97;;;18.50;99.90;;;;;;5020286;28;20049;-73
2022/09/06 08:38:37;;;;;;;28.92;5.07;;;18.60;99.90;;;;;;5037190;28;20057;-72
2022/09/06 08:41:19;;;;;;;26.83;4.68;;;18.60;99.90;;;;;;5036215;28;20487;-73
2022/09/06 08:43:56;;;;;;;27.58;4.22;;;18.60;99.90;;;;;;5019941;28;20357;-73
2022/09/06 08:46:56;;;;;;;26.23;3.97;;;20.30;99.90;;;;;;5036155;28;20356;-75
2022/09/06 08:49:35;;;;;;;22.85;3.85;;;18.80;99.90;;;;;;5020303;28;20061;-77
2022/09/06 08:52:13;;;;;;;21.60;4.30;;;18.80;99.90;;;;;;5004229;28;20053;-74
2022/09/06 08:55:04;;;;;;;22.33;4.15;;;19.00;99.90;;;;;;5036423;28;20056;-73
2022/09/06 08:57:51;;;;;;;24.83;4.45;;;18.90;99.90;;;;;;5037208;28;20467;-75
2022/09/06 09:00:19;;;;;;;27.83;4.35;;;19.00;99.90;;;;;;5018175;28;20464;-75
2022/09/06 09:03:06;;;;;;;30.55;4.32;;;19.10;99.90;;;;;;5036310;28;20060;-74
2022/09/06 09:05:41;;;;;;;29.23;4.68;;;19.20;99.90;;;;;;5020009;28;20468;-75
2022/09/06 09:08:11;;;;;;;26.65;4.68;;;19.30;99.90;;;;;;5036104;28;20049;-74
2022/09/06 09:10:49;;;;;;;23.08;4.05;;;19.30;99.90;;;;;;5036797;28;20483;-74
2022/09/06 09:13:43;;;;;;;26.65;4.35;;;19.40;99.90;;;;;;5035420;28;20041;-75
2022/09/06 09:16:10;;;;;;;22.15;4.57;;;19.40;99.90;;;;;;5018455;28;20053;-75
2022/09/06 09:18:42;;;;;;;20.67;3.55;;;19.40;99.90;;;;;;5036536;28;20056;-74
2022/09/06 09:21:11;;;;;;;23.48;4.03;;;;;;;;;;5035322;28;20064;-75
2022/09/06 09:23:38;;;;;;;32.33;3.78;;;;;;;;;;5019310;28;20056;-75
2022/09/06 09:26:12;;;;;;;25.95;3.97;;;19.50;99.90;;;;;;5019408;28;20049;-74
2022/09/06 09:29:13;;;;;;;19.23;3.60;;;19.60;99.90;;;;;;5017919;28;20053;-74
2022/09/06 09:31:51;;;;;;;24.10;3.75;;;19.70;99.90;;;;;;5036135;28;20372;-74
2022/09/06 09:34:29;;;;;;;26.65;4.95;;;19.70;99.90;;;;;;5002208;28;20057;-75
2022/09/06 09:37:21;;;;;;;25.87;3.60;;;19.80;99.90;;;;;;5019259;28;20045;-74
2022/09/06 09:40:25;;;;;;;19.67;3.25;;;20.00;99.90;;;;;;5028880;28;20045;-75
2022/09/06 09:42:55;;;;;;;19.67;4.10;;;19.10;99.90;;;;;;5056232;28;20037;-75
2022/09/06 09:45:27;;;;;;;20.85;5.32;;;20.20;99.90;;;;;;5056131;28;20052;-75
2022/09/06 09:47:55;;;;;;;23.10;4.15;;;20.20;99.90;;;;;;5054773;28;20357;-76
2022/09/06 09:50:34;;;;;;;22.70;3.58;;;20.40;99.90;;;;;;5055702;28;20046;-75
2022/09/06 09:53:14;;;;;;;21.85;3.80;;;20.40;99.90;;;;;;5056348;28;20048;-74
2022/09/06 09:55:42;;;;;;;18.95;3.80;;;20.50;99.90;;;;;;5056008;28;20386;-73
2022/09/06 09:58:35;;;;;;;22.02;4.15;;;20.60;99.90;;;;;;5054727;28;20459;-75
2022/09/06 10:01:15;;;;;;;23.58;5.55;;;20.70;99.90;;;;;;5053483;28;20040;-75
2022/09/06 10:03:43;;;;;;;32.50;10.65;;;20.70;99.90;;;;;;5056219;28;20041;-75
2022/09/06 10:06:31;;;;;;;21.20;4.38;;;20.70;99.90;;;;;;5054769;28;20052;-75
2022/09/06 10:09:21;;;;;;;21.48;3.92;;;20.80;99.90;;;;;;5055171;28;20041;-75
2022/09/06 10:11:57;;;;;;;20.17;4.60;;;20.70;99.90;;;;;;5055521;28;20478;-75
2022/09/06 10:14:29;;;;;;;18.92;3.58;;;20.70;99.90;;;;;;5054571;28;20049;-74
2022/09/06 10:16:58;;;;;;;25.35;4.10;;;20.70;99.90;;;;;;5054674;28;20067;-74
2022/09/06 10:19:40;;;;;;;17.48;3.75;;;20.60;99.90;;;;;;5055249;28;20049;-74
2022/09/06 10:22:27;;;;;;;25.05;4.03;;;20.60;99.90;;;;;;5054176;28;20049;-75
2022/09/06 10:25:05;;;;;;;16.77;3.70;;;20.50;99.90;;;;;;5054679;28;20044;-74
2022/09/06 10:27:33;;;;;;;22.15;3.83;;;20.50;99.90;;;;;;5053605;28;20044;-74
2022/09/06 10:30:05;;;;;;;18.08;3.30;;;20.70;99.90;;;;;;5054928;28;20044;-74
2022/09/06 10:32:54;;;;;;;17.73;3.30;;;20.60;99.90;;;;;;5055633;28;20059;-73
2022/09/06 10:35:25;;;;;;;17.48;3.60;;;20.70;99.90;;;;;;5053898;28;20071;-73
2022/09/06 10:38:14;;;;;;;19.55;3.40;;;20.80;99.90;;;;;;5054206;28;20045;-75
2022/09/06 10:40:53;;;;;;;21.60;3.17;;;20.90;99.90;;;;;;5052798;28;20060;-74
2022/09/06 10:43:40;;;;;;;19.65;3.47;;;20.90;99.90;;;;;;5053969;28;20430;-75
2022/09/06 10:46:14;;;;;;;20.58;3.00;;;21.00;99.90;;;;;;5054620;28;20056;-74
2022/09/06 10:48:45;;;;;;;18.35;3.22;;;21.20;99.90;;;;;;5053012;28;20049;-75
2022/09/06 10:51:33;;;;;;;20.30;3.25;;;21.30;99.90;;;;;;5053611;28;20051;-74
2022/09/06 10:54:08;;;;;;;18.58;4.25;;;21.50;99.90;;;;;;5053512;28;20053;-73
2022/09/06 10:56:56;;;;;;;19.52;4.20;;;21.60;99.90;;;;;;5051355;28;20352;-75
2022/09/06 11:00:14;;;;;;;18.05;3.38;;;21.70;99.90;;;;;;5028401;28;20063;-74
2022/09/06 11:03:02;;;;;;;18.42;3.00;;;21.80;99.90;;;;;;5044539;28;20064;-77
2022/09/06 11:05:53;;;;;;;21.77;3.50;;;21.80;99.90;;;;;;5053539;28;20368;-77
2022/09/06 11:08:20;;;;;;;17.08;2.83;;;21.80;99.90;;;;;;5036190;28;20049;-76
2022/09/06 11:11:19;;;;;;;16.63;3.15;;;21.80;99.90;;;;;;5053827;28;20454;-77
2022/09/06 11:13:47;;;;;;;14.40;3.00;;;21.80;99.90;;;;;;5036046;28;20068;-75
2022/09/06 11:16:17;;;;;;;19.77;3.25;;;21.80;99.90;;;;;;5053521;28;20363;-76
2022/09/06 11:19:04;;;;;;;19.63;3.00;;;21.70;99.90;;;;;;5054599;28;20041;-77
2022/09/06 11:21:46;;;;;;;17.73;3.40;;;21.80;99.90;;;;;;5036159;28;20052;-78
2022/09/06 11:24:34;;;;;;;19.33;3.20;;;21.80;99.90;;;;;;5037998;28;20049;-77
2022/09/06 11:27:16;;;;;;;18.42;3.22;;;21.80;99.90;;;;;;5056984;28;20467;-75
2022/09/06 11:29:47;;;;;;;14.00;3.00;;;21.90;99.90;;;;;;5058609;28;20044;-78
2022/09/06 11:32:35;;;;;;;15.38;3.15;;;22.00;99.90;;;;;;5057833;28;20052;-78
2022/09/06 11:35:09;;;;;;;18.37;3.57;;;22.10;99.90;;;;;;5057299;28;20060;-77
2022/09/06 11:37:43;;;;;;;17.50;3.28;;;22.10;99.90;;;;;;5058735;28;20049;-76
2022/09/06 11:40:25;;;;;;;23.15;3.45;;;22.20;99.90;;;;;;5035742;28;20054;-77
2022/09/06 11:42:55;;;;;;;21.38;3.55;;;22.20;99.90;;;;;;5037267;28;20046;-77
2022/09/06 11:45:46;;;;;;;19.75;3.42;;;22.40;99.90;;;;;;5038046;28;20048;-74
2022/09/06 11:48:33;;;;;;;19.75;3.55;;;22.50;99.90;;;;;;5036402;28;20053;-77
2022/09/06 11:51:09;;;;;;;21.00;3.28;;;22.60;99.90;;;;;;5037897;28;20056;-77
2022/09/06 11:53:48;;;;;;;19.48;3.30;;;22.70;99.90;;;;;;5036666;28;20050;-76
2022/09/06 11:57:01;;;;;;;18.15;3.50;;;22.80;99.90;;;;;;5036867;28;20060;-78
2022/09/06 11:59:35;;;;;;;21.02;3.90;;;22.90;99.90;;;;;;5022307;28;20472;-77
2022/09/06 12:02:29;;;;;;;22.25;3.78;;;23.00;99.90;;;;;;5035418;28;20045;-78
2022/09/06 12:04:59;;;;;;;23.83;3.50;;;23.20;99.90;;;;;;5037460;28;20056;-78
2022/09/06 12:07:29;;;;;;;18.95;4.22;;;23.30;99.90;;;;;;5035684;28;20368;-76
2022/09/06 12:10:00;;;;;;;21.70;3.97;;;23.40;99.90;;;;;;5036759;28;20041;-78
2022/09/06 12:12:51;;;;;;;19.35;4.00;;;23.50;99.90;;;;;;5036429;28;20499;-78
2022/09/06 12:15:43;;;;;;;17.67;3.28;;;23.60;99.90;;;;;;5036200;28;20061;-77
2022/09/06 12:18:45;;;;;;;18.23;3.47;;;23.70;99.00;;;;;;5037227;28;20061;-76
2022/09/06 12:21:39;;;;;;;18.25;3.58;;;23.80;99.90;;;;;;5035300;28;20383;-76
2022/09/06 12:24:28;;;;;;;15.07;3.35;;;23.90;99.80;;;;;;5037161;28;20037;-76
2022/09/06 12:27:14;;;;;;;18.73;3.42;;;23.90;99.90;;;;;;5047339;28;20208;-74
2022/09/06 12:30:00;;;;;;;17.98;3.63;;;23.80;99.20;;;;;;5048581;28;20375;-75
2022/09/06 12:32:48;;;;;;;18.55;3.47;;;23.80;99.10;;;;;;5053399;28;20479;-75
2022/09/06 12:35:29;;;;;;;15.50;3.13;;;23.60;98.20;;;;;;5045767;28;20075;-73
2022/09/06 12:38:23;;;;;;;16.67;3.42;;;23.50;98.70;;;;;;5046550;28;20056;-76
2022/09/06 12:40:56;;;;;;;15.80;3.25;;;23.50;98.60;;;;;;5039748;28;20053;-74
2022/09/06 12:43:25;;;;;;;17.42;3.30;;;23.50;98.90;;;;;;5036824;28;20052;-75
2022/09/06 12:45:53;;;;;;;15.63;3.47;;;23.60;98.90;;;;;;5036689;28;20045;-76
2022/09/06 12:48:30;;;;;;;16.90;3.28;;;23.50;99.10;;;;;;5035886;28;20056;-76
2022/09/06 12:51:04;;;;;;;14.48;2.85;;;23.50;98.60;;;;;;5019546;28;20045;-77
2022/09/06 12:53:33;;;;;;;14.70;2.72;;;23.50;98.40;;;;;;5035740;28;20049;-75
2022/09/06 12:56:07;;;;;;;16.00;2.95;;;23.60;98.20;;;;;;5019284;28;20064;-73
2022/09/06 12:58:36;;;;;;;14.32;2.55;;;23.80;98.00;;;;;;5033468;28;20460;-78
2022/09/06 13:01:34;;;;;;;18.02;3.15;;;23.90;97.50;;;;;;5018552;28;20046;-77
2022/09/06 13:04:23;;;;;;;16.08;2.95;;;24.00;96.90;;;;;;4999442;28;20053;-78
2022/09/06 13:06:52;;;;;;;15.23;2.78;;;24.20;96.90;;;;;;5021267;28;20053;-77